createdAt,value
2018-07-13T00:02:27.067Z,15.83
2018-07-13T00:04:56.228Z,15.60
2018-07-13T00:07:25.416Z,15.54
2018-07-13T00:09:55.250Z,15.62
2018-07-13T00:12:24.453Z,15.63
2018-07-13T00:15:07.740Z,15.58
2018-07-13T00:17:36.887Z,15.52
2018-07-13T00:20:06.483Z,15.52
2018-07-13T00:22:36.080Z,15.52
2018-07-13T00:25:05.568Z,15.61
2018-07-13T00:27:34.768Z,15.56
2018-07-13T00:30:04.184Z,15.54
2018-07-13T00:32:33.524Z,15.54
2018-07-13T00:35:02.644Z,15.53
2018-07-13T00:37:31.905Z,15.51
2018-07-13T00:40:00.998Z,15.50
2018-07-13T00:42:30.134Z,15.49
2018-07-13T00:44:59.704Z,15.51
2018-07-13T00:47:28.961Z,15.46
2018-07-13T00:49:58.140Z,15.47
2018-07-13T00:52:27.397Z,15.34
2018-07-13T00:54:56.596Z,15.31
2018-07-13T00:57:26.572Z,15.19
2018-07-13T00:59:56.167Z,15.18
2018-07-13T01:02:25.275Z,15.14
2018-07-13T01:04:55.504Z,15.19
2018-07-13T01:07:24.917Z,15.13
2018-07-13T01:09:54.384Z,15.13
2018-07-13T01:12:23.947Z,15.12
2018-07-13T01:14:53.404Z,15.11
2018-07-13T01:17:24.096Z,15.10
2018-07-13T01:19:54.168Z,15.06
2018-07-13T01:22:23.364Z,14.99
2018-07-13T01:24:52.460Z,15.01
2018-07-13T01:27:21.980Z,14.90
2018-07-13T01:29:51.164Z,14.89
2018-07-13T01:32:20.568Z,14.86
2018-07-13T01:34:49.655Z,14.85
2018-07-13T01:37:18.959Z,14.77
2018-07-13T01:39:48.044Z,14.78
2018-07-13T01:42:17.548Z,14.74
2018-07-13T01:44:47.580Z,14.76
2018-07-13T01:47:16.819Z,14.74
2018-07-13T01:49:46.522Z,14.75
2018-07-13T01:52:15.631Z,14.75
2018-07-13T01:54:44.883Z,14.75
2018-07-13T01:57:14.744Z,14.72
2018-07-13T01:59:43.922Z,14.51
2018-07-13T02:02:13.116Z,14.57
2018-07-13T02:04:42.834Z,14.57
2018-07-13T02:07:11.912Z,14.52
2018-07-13T02:09:41.196Z,14.47
2018-07-13T02:12:11.136Z,14.44
2018-07-13T02:14:40.204Z,14.44
2018-07-13T02:17:10.176Z,14.37
2018-07-13T02:19:39.315Z,14.40
2018-07-13T02:22:08.932Z,14.26
2018-07-13T02:24:38.128Z,14.34
2018-07-13T02:27:07.316Z,14.36
2018-07-13T02:29:36.496Z,14.37
2018-07-13T02:32:05.711Z,14.33
2018-07-13T02:34:34.940Z,14.36
2018-07-13T02:37:04.205Z,14.28
2018-07-13T02:39:33.362Z,14.24
2018-07-13T02:42:03.489Z,14.20
2018-07-13T02:44:32.867Z,14.21
2018-07-13T02:47:02.236Z,14.22
2018-07-13T02:49:31.760Z,14.19
2018-07-13T02:52:00.865Z,14.20
2018-07-13T02:54:30.022Z,14.17
2018-07-13T02:56:59.679Z,14.12
2018-07-13T02:59:28.870Z,14.18
2018-07-13T03:01:57.964Z,14.21
2018-07-13T03:04:27.087Z,14.19
2018-07-13T03:06:56.199Z,14.12
2018-07-13T03:09:25.416Z,14.07
2018-07-13T03:11:54.920Z,14.07
2018-07-13T03:14:24.187Z,14.06
2018-07-13T03:16:53.304Z,14.06
2018-07-13T03:19:23.024Z,14.06
2018-07-13T03:21:52.757Z,14.06
2018-07-13T03:24:22.072Z,14.07
2018-07-13T03:26:51.972Z,14.03
2018-07-13T03:29:21.084Z,14.06
2018-07-13T03:31:50.442Z,14.04
2018-07-13T03:34:19.657Z,13.98
2018-07-13T03:36:49.617Z,13.97
2018-07-13T03:39:18.890Z,13.95
2018-07-13T03:41:48.500Z,13.96
2018-07-13T03:44:17.596Z,13.91
2018-07-13T03:46:46.788Z,13.86
2018-07-13T03:49:15.988Z,13.89
2018-07-13T03:51:45.200Z,13.86
2018-07-13T03:54:14.487Z,13.87
2018-07-13T03:56:43.668Z,13.55
2018-07-13T03:59:12.891Z,13.69
2018-07-13T04:01:42.306Z,13.67
2018-07-13T04:04:11.700Z,13.71
2018-07-13T04:06:40.900Z,13.77
2018-07-13T04:09:11.037Z,13.79
2018-07-13T04:11:40.666Z,13.55
2018-07-13T04:14:10.220Z,13.73
2018-07-13T04:16:39.632Z,13.83
2018-07-13T04:19:09.040Z,13.93
2018-07-13T04:21:38.342Z,13.96
2018-07-13T04:24:07.609Z,14.07
2018-07-13T04:26:37.348Z,14.16
2018-07-13T04:29:06.753Z,14.29
2018-07-13T04:31:35.925Z,14.31
2018-07-13T04:34:05.507Z,14.31
2018-07-13T04:36:34.752Z,14.30
2018-07-13T04:39:06.221Z,14.37
2018-07-13T04:41:35.478Z,14.43
2018-07-13T04:44:04.810Z,14.48
2018-07-13T04:46:34.576Z,14.63
2018-07-13T04:49:04.189Z,14.72
2018-07-13T04:51:33.728Z,14.79
2018-07-13T04:54:03.544Z,14.85
2018-07-13T04:56:32.940Z,14.92
2018-07-13T04:59:02.118Z,14.96
2018-07-13T05:01:31.748Z,15.01
2018-07-13T05:04:00.913Z,15.12
2018-07-13T05:06:30.253Z,15.20
2018-07-13T05:08:59.808Z,15.36
2018-07-13T05:11:29.544Z,15.53
2018-07-13T05:13:58.769Z,15.72
2018-07-13T05:16:27.965Z,15.91
2018-07-13T05:18:57.413Z,16.07
2018-07-13T05:21:26.732Z,16.25
2018-07-13T05:23:55.959Z,16.44
2018-07-13T05:26:25.135Z,16.64
2018-07-13T05:28:54.456Z,16.78
2018-07-13T05:31:24.136Z,16.85
2018-07-13T05:33:53.788Z,17.03
2018-07-13T05:36:22.946Z,17.22
2018-07-13T05:38:53.068Z,17.35
2018-07-13T05:41:22.472Z,17.53
2018-07-13T05:43:52.268Z,17.63
2018-07-13T05:46:21.743Z,17.74
2018-07-13T05:48:50.908Z,17.88
2018-07-13T05:51:19.995Z,18.00
2018-07-13T05:53:50.404Z,18.15
2018-07-13T05:56:19.620Z,18.32
2018-07-13T05:58:48.825Z,18.42
2018-07-13T06:01:18.332Z,18.48
2018-07-13T06:03:48.461Z,18.73
2018-07-13T06:06:18.334Z,18.69
2018-07-13T06:08:47.940Z,19.00
2018-07-13T06:11:17.151Z,19.14
2018-07-13T06:13:46.388Z,19.28
2018-07-13T06:16:16.180Z,19.43
2018-07-13T06:18:45.343Z,19.27
2018-07-13T06:21:14.653Z,19.25
2018-07-13T06:23:44.041Z,19.64
2018-07-13T06:26:13.152Z,20.02
2018-07-13T06:28:42.340Z,20.35
2018-07-13T06:31:11.956Z,20.27
2018-07-13T06:33:41.152Z,20.45
2018-07-13T06:36:10.352Z,20.82
2018-07-13T06:38:39.784Z,21.24
2018-07-13T06:41:10.100Z,21.40
2018-07-13T06:43:39.380Z,21.38
2018-07-13T06:46:08.989Z,21.54
2018-07-13T06:48:38.188Z,21.53
2018-07-13T06:51:07.361Z,21.64
2018-07-13T06:53:36.969Z,21.66
2018-07-13T06:56:06.520Z,21.59
2018-07-13T06:58:52.609Z,22.03
2018-07-13T07:01:22.533Z,22.01
2018-07-13T07:04:39.231Z,22.29
2018-07-13T07:08:36.259Z,22.20
2018-07-13T07:11:05.552Z,22.40
2018-07-13T07:13:40.600Z,22.58
2018-07-13T07:16:10.089Z,22.27
2018-07-13T07:18:39.694Z,22.05
2018-07-13T07:21:09.556Z,21.82
2018-07-13T07:23:38.984Z,22.11
2018-07-13T08:02:34.868Z,29.85
2018-07-13T08:05:04.096Z,30.44
2018-07-13T08:07:33.814Z,30.59
2018-07-13T08:10:03.104Z,30.68
2018-07-13T08:12:34.306Z,30.55
2018-07-13T08:15:03.238Z,28.97
2018-07-13T08:17:35.201Z,30.50
2018-07-13T08:20:05.765Z,32.98
2018-07-13T08:22:45.262Z,33.58
2018-07-13T08:25:17.187Z,34.66
2018-07-13T08:27:57.689Z,35.55
2018-07-13T09:13:43.453Z,34.66
2018-07-13T09:16:16.613Z,36.34
2018-07-13T09:18:48.692Z,36.61
2018-07-13T09:21:20.008Z,38.20
2018-07-13T09:24:03.190Z,36.44
2018-07-13T09:26:36.347Z,38.39
2018-07-13T09:29:14.812Z,39.47
2018-07-13T09:31:47.740Z,39.91
2018-07-13T09:34:20.168Z,40.38
2018-07-13T09:36:53.820Z,37.49
2018-07-13T09:42:05.525Z,32.34
2018-07-13T09:44:35.316Z,30.09
2018-07-13T09:47:05.634Z,32.94
2018-07-13T09:49:36.264Z,34.63
2018-07-13T09:52:06.860Z,36.37
2018-07-13T09:54:36.300Z,37.09
2018-07-13T09:57:06.598Z,36.93
2018-07-13T09:59:36.187Z,37.79
2018-07-13T10:08:56.140Z,35.83
2018-07-13T10:11:26.282Z,35.39
2018-07-13T10:13:56.580Z,37.15
2018-07-13T10:16:25.648Z,38.65
2018-07-13T10:18:55.989Z,39.96
2018-07-13T10:21:25.616Z,41.19
2018-07-13T10:23:59.296Z,37.90
2018-07-13T10:26:37.885Z,37.66
2018-07-13T10:29:13.716Z,37.51
2018-07-13T10:31:44.181Z,36.64
2018-07-13T10:34:16.687Z,34.45
2018-07-13T10:37:08.878Z,34.47
2018-07-13T10:39:39.861Z,35.99
2018-07-13T10:42:09.633Z,36.21
2018-07-13T10:44:45.536Z,35.08
2018-07-13T10:47:16.170Z,34.31
2018-07-13T10:49:46.343Z,35.00
2018-07-13T10:52:22.960Z,36.47
2018-07-13T10:55:03.005Z,39.63
2018-07-13T10:57:42.945Z,38.99
2018-07-13T11:00:21.997Z,38.50
2018-07-13T11:03:02.634Z,35.13
2018-07-13T11:05:43.533Z,32.10
2018-07-13T11:08:23.256Z,32.58
2018-07-13T11:10:59.429Z,30.72
2018-07-13T11:13:42.298Z,30.18
2018-07-13T11:16:13.208Z,30.71
2018-07-13T11:18:45.150Z,30.70
2018-07-13T11:21:16.072Z,31.11
2018-07-13T11:23:57.560Z,31.65
2018-07-13T11:26:37.941Z,31.69
2018-07-13T11:29:14.264Z,31.23
2018-07-13T11:31:54.914Z,30.85
2018-07-13T11:34:27.089Z,30.52
2018-07-13T11:37:02.044Z,30.89
2018-07-13T11:39:33.615Z,31.21
2018-07-13T11:42:04.368Z,31.64
2018-07-13T11:44:36.581Z,31.65
2018-07-13T11:47:06.535Z,31.42
2018-07-13T11:49:35.645Z,30.94
2018-07-13T11:52:05.512Z,30.91
2018-07-13T11:54:34.538Z,32.79
2018-07-13T11:57:03.578Z,34.49
2018-07-13T11:59:32.922Z,34.33
2018-07-13T12:02:01.989Z,33.31
2018-07-13T12:04:31.300Z,33.66
2018-07-13T12:07:00.396Z,34.37
2018-07-13T12:09:29.515Z,33.75
2018-07-13T12:11:58.561Z,33.72
2018-07-13T12:14:28.702Z,34.02
2018-07-13T12:43:55.625Z,32.59
2018-07-13T12:46:27.104Z,32.87
2018-07-13T12:49:01.539Z,33.10
2018-07-13T12:51:31.772Z,33.23
2018-07-13T12:54:09.186Z,33.29
2018-07-13T12:56:40.094Z,32.82
2018-07-13T12:59:11.121Z,33.60
2018-07-13T13:01:41.865Z,34.40
2018-07-13T13:04:12.188Z,34.64
2018-07-13T13:06:47.578Z,34.69
2018-07-13T13:09:20.367Z,32.11
2018-07-13T13:11:53.788Z,32.86
2018-07-13T13:14:27.989Z,32.83
2018-07-13T13:16:59.167Z,32.46
2018-07-13T13:19:33.803Z,32.92
2018-07-13T13:22:03.865Z,32.26
2018-07-13T13:24:34.700Z,32.21
2018-07-13T13:27:12.304Z,30.76
2018-07-13T13:29:49.587Z,30.64
2018-07-13T13:32:27.205Z,30.46
2018-07-13T13:35:00.913Z,30.21
2018-07-13T13:37:33.272Z,30.42
2018-07-13T13:40:06.800Z,29.72
2018-07-13T13:42:37.549Z,30.11
2018-07-13T13:45:08.760Z,29.91
2018-07-13T13:47:39.421Z,29.11
2018-07-13T13:50:09.896Z,29.88
2018-07-13T13:52:40.870Z,30.31
2018-07-13T13:55:13.130Z,30.80
2018-07-13T13:57:42.717Z,30.55
2018-07-13T14:00:13.372Z,30.83
2018-07-13T14:02:42.469Z,30.98
2018-07-13T14:05:13.184Z,30.87
2018-07-13T14:07:43.528Z,30.67
2018-07-13T14:10:15.924Z,30.57
2018-07-13T14:12:47.576Z,30.49
2018-07-13T14:15:18.783Z,29.87
2018-07-13T14:17:50.381Z,29.57
2018-07-13T14:20:21.365Z,29.63
2018-07-13T14:22:52.445Z,29.82
2018-07-13T14:25:24.026Z,29.45
2018-07-13T14:27:57.174Z,29.51
2018-07-13T14:30:28.840Z,29.43
2018-07-13T14:33:01.745Z,29.50
2018-07-13T14:35:33.185Z,28.65
2018-07-13T14:38:05.669Z,28.96
2018-07-13T14:40:36.796Z,29.22
2018-07-13T14:43:07.842Z,29.67
2018-07-13T14:45:42.360Z,29.56
2018-07-13T14:48:12.628Z,29.80
2018-07-13T14:50:47.437Z,29.97
2018-07-13T14:53:17.604Z,30.00
2018-07-13T14:55:48.596Z,30.44
2018-07-13T14:58:18.930Z,30.87
2018-07-13T15:00:49.784Z,31.87
2018-07-13T15:03:20.077Z,31.55
2018-07-13T15:05:54.068Z,30.16
2018-07-13T15:08:24.572Z,31.44
2018-07-13T15:10:55.032Z,31.16
2018-07-13T15:13:28.445Z,30.67
2018-07-13T15:16:00.585Z,30.07
2018-07-13T15:18:32.653Z,29.72
2018-07-13T15:21:03.476Z,29.83
2018-07-13T15:23:37.737Z,30.80
2018-07-13T15:26:09.460Z,30.25
2018-07-13T15:28:39.447Z,29.23
2018-07-13T15:31:09.681Z,29.78
2018-07-13T15:33:41.265Z,29.36
2018-07-13T15:36:12.685Z,29.42
2018-07-13T15:38:44.757Z,29.11
2018-07-13T15:41:16.128Z,29.37
2018-07-13T15:43:46.680Z,29.23
2018-07-13T15:46:17.058Z,29.43
2018-07-13T15:48:49.942Z,28.97
2018-07-13T15:51:29.501Z,28.94
2018-07-13T15:54:02.576Z,28.11
2018-07-13T15:56:34.740Z,28.31
2018-07-13T15:59:04.967Z,28.52
2018-07-13T16:01:35.433Z,28.75
2018-07-13T16:04:09.957Z,28.82
2018-07-13T16:06:40.474Z,28.62
2018-07-13T16:09:10.317Z,28.63
2018-07-13T16:11:40.486Z,28.67
2018-07-13T16:14:09.692Z,28.42
2018-07-13T16:16:43.413Z,28.23
2018-07-13T16:19:15.596Z,28.18
2018-07-13T16:21:47.110Z,28.20
2018-07-13T16:24:17.229Z,28.16
2018-07-13T16:26:49.080Z,28.10
2018-07-13T16:29:19.213Z,28.25
2018-07-13T16:31:52.730Z,28.06
2018-07-13T16:34:24.360Z,28.06
2018-07-13T16:36:55.197Z,27.73
2018-07-13T16:39:27.009Z,27.99
2018-07-13T16:41:59.838Z,28.15
2018-07-13T16:44:30.937Z,28.38
2018-07-13T16:47:01.721Z,28.45
2018-07-13T16:49:31.585Z,28.42
2018-07-13T16:52:01.249Z,28.23
2018-07-13T16:54:32.568Z,27.96
2018-07-13T16:57:03.018Z,27.63
2018-07-13T16:59:35.604Z,27.56
2018-07-13T17:02:05.717Z,27.64
2018-07-13T17:04:35.644Z,27.63
2018-07-13T17:07:06.382Z,27.66
2018-07-13T17:09:37.764Z,27.90
2018-07-13T17:12:10.260Z,28.08
2018-07-13T17:14:42.296Z,28.35
2018-07-13T17:17:13.029Z,27.75
2018-07-13T17:19:45.867Z,27.60
2018-07-13T17:22:18.761Z,27.60
2018-07-13T17:24:50.427Z,27.44
2018-07-13T17:27:21.348Z,27.47
2018-07-13T17:29:55.165Z,27.50
2018-07-13T17:32:25.787Z,27.49
2018-07-13T17:34:59.101Z,27.57
2018-07-13T17:37:31.659Z,27.59
2018-07-13T17:40:06.899Z,27.56
2018-07-13T17:42:38.459Z,27.35
2018-07-13T17:45:12.052Z,27.47
2018-07-13T17:47:44.369Z,27.56
2018-07-13T17:50:14.962Z,27.50
2018-07-13T17:52:46.408Z,27.44
2018-07-13T17:55:16.908Z,27.53
2018-07-13T17:57:49.826Z,27.46
2018-07-13T18:00:21.560Z,27.31
2018-07-13T18:02:52.536Z,27.43
2018-07-13T18:05:23.422Z,27.31
2018-07-13T18:07:55.096Z,27.25
2018-07-13T18:10:28.624Z,27.08
2018-07-13T18:13:07.746Z,27.16
2018-07-13T18:15:38.479Z,27.14
2018-07-13T18:18:17.332Z,26.93
2018-07-13T18:20:51.792Z,26.71
2018-07-13T18:23:23.867Z,26.68
2018-07-13T18:25:59.847Z,26.69
2018-07-13T18:28:35.336Z,26.49
2018-07-13T18:31:08.180Z,26.50
2018-07-13T18:33:40.420Z,26.69
2018-07-13T18:36:09.958Z,26.66
2018-07-13T18:38:42.905Z,26.70
2018-07-13T18:41:14.029Z,26.65
2018-07-13T18:43:52.503Z,26.70
2018-07-13T18:46:29.157Z,26.57
2018-07-13T18:49:02.089Z,26.24
2018-07-13T18:51:35.565Z,26.14
2018-07-13T18:54:10.282Z,26.08
2018-07-13T18:56:39.636Z,25.83
2018-07-13T18:59:12.229Z,25.78
2018-07-13T19:01:41.527Z,25.70
2018-07-13T19:04:11.580Z,25.78
2018-07-13T19:06:41.464Z,25.78
2018-07-13T19:09:11.106Z,25.61
2018-07-13T19:11:41.793Z,25.52
2018-07-13T19:14:12.860Z,25.43
2018-07-13T19:16:42.387Z,25.43
2018-07-13T19:19:12.505Z,25.20
2018-07-13T19:21:43.856Z,25.14
2018-07-13T19:24:14.321Z,25.24
2018-07-13T19:26:46.246Z,25.20
2018-07-13T19:29:16.040Z,25.13
2018-07-13T19:31:48.276Z,25.04
2018-07-13T19:34:17.495Z,24.93
2018-07-13T19:36:46.972Z,24.72
2018-07-13T19:39:17.375Z,24.65
2018-07-13T19:41:47.444Z,24.59
2018-07-13T19:44:18.652Z,24.36
2018-07-13T19:46:53.497Z,24.16
2018-07-13T19:49:24.928Z,23.92
2018-07-13T19:51:55.599Z,23.85
2018-07-13T19:54:39.900Z,23.82
2018-07-13T19:57:22.969Z,23.63
2018-07-13T20:00:00.256Z,23.51
2018-07-13T20:02:39.471Z,23.38
2018-07-13T20:05:21.553Z,23.28
2018-07-13T20:07:56.892Z,23.19
2018-07-13T20:10:29.630Z,23.15
2018-07-13T20:13:07.132Z,23.05
2018-07-13T20:15:48.907Z,22.94
2018-07-13T20:18:23.995Z,22.86
2018-07-13T20:23:46.202Z,22.69
2018-07-13T20:26:23.731Z,22.54
2018-07-13T20:28:56.669Z,22.44
2018-07-13T20:31:38.590Z,22.29
2018-07-13T20:34:15.744Z,22.15
2018-07-13T20:36:48.025Z,22.05
2018-07-13T20:39:19.330Z,21.98
2018-07-13T20:41:51.388Z,21.84
2018-07-13T20:44:25.349Z,21.73
2018-07-13T20:46:55.173Z,21.65
2018-07-13T20:49:23.942Z,21.60
2018-07-13T20:51:53.236Z,21.51
2018-07-13T20:54:22.301Z,21.43
2018-07-13T20:56:51.393Z,21.28
2018-07-13T20:59:20.505Z,21.14
2018-07-13T21:01:50.041Z,21.04
2018-07-13T21:04:19.216Z,21.01
2018-07-13T21:06:49.152Z,20.90
2018-07-13T21:09:18.636Z,20.84
2018-07-13T21:11:48.385Z,20.75
2018-07-13T21:14:18.038Z,20.70
2018-07-13T21:16:47.657Z,20.68
2018-07-13T21:19:18.937Z,20.63
2018-07-13T21:21:49.157Z,20.55
2018-07-13T21:24:18.240Z,20.44
2018-07-13T21:26:48.493Z,20.39
2018-07-13T21:29:18.992Z,20.35
2018-07-13T21:31:50.045Z,20.25
2018-07-13T21:34:19.665Z,20.22
2018-07-13T21:36:50.892Z,20.15
2018-07-13T21:39:20.786Z,20.10
2018-07-13T21:41:50.982Z,20.09
2018-07-13T21:44:21.208Z,20.01
2018-07-13T21:46:52.684Z,19.94
2018-07-13T21:49:23.868Z,19.87
2018-07-13T21:51:53.258Z,19.84
2018-07-13T21:54:23.534Z,19.82
2018-07-13T21:56:53.292Z,19.75
2018-07-13T21:59:23.253Z,19.62
2018-07-13T22:01:54.253Z,19.52
2018-07-13T22:04:25.545Z,19.51
2018-07-13T22:06:56.281Z,19.41
2018-07-13T22:09:29.392Z,19.35
2018-07-13T22:12:00.308Z,19.32
2018-07-13T22:14:34.379Z,19.28
2018-07-13T22:17:04.349Z,19.22
2018-07-13T22:19:34.399Z,19.01
2018-07-13T22:22:04.088Z,19.00
2018-07-13T22:24:35.617Z,18.88
2018-07-13T22:27:05.677Z,18.91
2018-07-13T22:29:38.237Z,18.85
2018-07-13T22:32:09.704Z,18.73
2018-07-13T22:34:39.420Z,18.71
2018-07-13T22:37:13.004Z,18.71
2018-07-13T22:39:43.325Z,18.60
2018-07-13T22:42:14.601Z,18.57
2018-07-13T22:44:47.013Z,18.60
2018-07-13T22:47:17.903Z,18.59
2018-07-13T22:49:48.720Z,18.56
2018-07-13T22:52:18.932Z,18.51
2018-07-13T22:54:48.385Z,18.46
2018-07-13T22:57:20.103Z,18.41
2018-07-13T22:59:50.656Z,18.42
2018-07-13T23:02:23.220Z,18.34
2018-07-13T23:04:52.604Z,18.20
2018-07-13T23:07:22.517Z,18.20
2018-07-13T23:09:54.022Z,18.13
2018-07-13T23:12:24.949Z,18.11
2018-07-13T23:14:55.261Z,18.06
2018-07-13T23:17:31.278Z,18.00
2018-07-13T23:20:02.243Z,17.99
2018-07-13T23:22:32.969Z,17.94
2018-07-13T23:25:03.100Z,17.80
2018-07-13T23:27:34.806Z,17.77
2018-07-13T23:30:05.512Z,17.75
2018-07-13T23:32:34.997Z,17.81
2018-07-13T23:35:07.545Z,17.90
2018-07-13T23:37:38.759Z,17.88
2018-07-13T23:40:10.285Z,17.92
2018-07-13T23:42:40.689Z,17.91
2018-07-13T23:45:10.411Z,17.90
2018-07-13T23:47:43.232Z,17.88
2018-07-13T23:50:14.216Z,17.91
2018-07-13T23:52:45.565Z,17.90
2018-07-13T23:55:17.139Z,17.96
2018-07-13T23:57:51.390Z,18.08
